Westover AFB, Massachusetts
Current Conditions -  °F | °C
As of 6:58 PM on Friday 19 Dec 2014 (Local Time) from KCEF Reporting Station
Overcast Overcast  
Wind Chill: 23°   Ceiling: 3300
Heat Index: 31°   Visibility: 10mi
Dew Point: 21°   Wind: 10mph
Humidity: 64%   Direction: 350°N
Pressure: 30.08"   Gusts: NA
Location:  42.1968°N, 72.5424°W
Report Text: KCEF 192358Z AUTO 35009KT 10SM OVC033 00/M06 A3008 RMK AO2 SLP195 T10031063 10012 21003 52019
Loading
Personal Weather Stations






























Interactive Weather Map New forecast layout! Learn more

10-Day Weather Forecast

Advertisements
Track Severe Weather on mobile